sensor_id;sensor_type;location;lat;lon;timestamp;pressure;altitude;pressure_sealevel;temperature;humidity
19845;BME280;10083;51.038;7.012;2023-05-28T00:01:33;102826.53;;;13.25;100.00
19845;BME280;10083;51.038;7.012;2023-05-28T00:03:59;102818.50;;;13.22;100.00
19845;BME280;10083;51.038;7.012;2023-05-28T00:06:27;102818.47;;;13.20;100.00
19845;BME280;10083;51.038;7.012;2023-05-28T00:08:57;102812.19;;;13.20;100.00
19845;BME280;10083;51.038;7.012;2023-05-28T00:11:24;102812.19;;;13.10;100.00
19845;BME280;10083;51.038;7.012;2023-05-28T00:13:53;102803.19;;;13.10;100.00
19845;BME280;10083;51.038;7.012;2023-05-28T00:16:20;102805.03;;;13.11;100.00
19845;BME280;10083;51.038;7.012;2023-05-28T00:18:48;102824.75;;;13.08;100.00
19845;BME280;10083;51.038;7.012;2023-05-28T00:21:15;102831.03;;;13.09;100.00
19845;BME280;10083;51.038;7.012;2023-05-28T00:23:49;102791.56;;;12.97;100.00
19845;BME280;10083;51.038;7.012;2023-05-28T00:26:17;102796.03;;;12.92;100.00
19845;BME280;10083;51.038;7.012;2023-05-28T00:28:57;102813.06;;;13.06;100.00
19845;BME280;10083;51.038;7.012;2023-05-28T00:31:24;102831.91;;;12.91;100.00
19845;BME280;10083;51.038;7.012;2023-05-28T00:33:52;102843.56;;;12.99;100.00
19845;BME280;10083;51.038;7.012;2023-05-28T00:36:26;102864.19;;;12.82;100.00
19845;BME280;10083;51.038;7.012;2023-05-28T00:38:53;102856.09;;;12.81;100.00
19845;BME280;10083;51.038;7.012;2023-05-28T00:41:22;102875.78;;;12.67;100.00
19845;BME280;10083;51.038;7.012;2023-05-28T00:43:49;102881.16;;;12.70;100.00
19845;BME280;10083;51.038;7.012;2023-05-28T00:46:18;102884.75;;;12.60;100.00
19845;BME280;10083;51.038;7.012;2023-05-28T00:48:45;102898.16;;;12.62;100.00
19845;BME280;10083;51.038;7.012;2023-05-28T00:51:23;102916.13;;;12.72;100.00
19845;BME280;10083;51.038;7.012;2023-05-28T00:53:50;102934.06;;;12.79;100.00
19845;BME280;10083;51.038;7.012;2023-05-28T00:56:18;102951.06;;;12.61;100.00
19845;BME280;10083;51.038;7.012;2023-05-28T00:58:49;102955.50;;;12.58;100.00
19845;BME280;10083;51.038;7.012;2023-05-28T01:01:22;102973.44;;;12.53;100.00
19845;BME280;10083;51.038;7.012;2023-05-28T01:03:51;102980.47;;;12.36;100.00
19845;BME280;10083;51.038;7.012;2023-05-28T01:06:29;102969.78;;;12.39;100.00
19845;BME280;10083;51.038;7.012;2023-05-28T01:08:56;102961.72;;;12.39;100.00
19845;BME280;10083;51.038;7.012;2023-05-28T01:11:26;102958.97;;;12.33;100.00
19845;BME280;10083;51.038;7.012;2023-05-28T01:13:54;102960.72;;;12.21;100.00
19845;BME280;10083;51.038;7.012;2023-05-28T01:16:25;102962.44;;;12.10;100.00
19845;BME280;10083;51.038;7.012;2023-05-28T01:18:54;102971.38;;;12.05;100.00
19845;BME280;10083;51.038;7.012;2023-05-28T01:21:23;102980.31;;;12.04;100.00
19845;BME280;10083;51.038;7.012;2023-05-28T01:23:57;102997.31;;;12.00;100.00
19845;BME280;10083;51.038;7.012;2023-05-28T01:26:34;103002.66;;;12.01;100.00
19845;BME280;10083;51.038;7.012;2023-05-28T01:29:13;103009.78;;;11.93;100.00
19845;BME280;10083;51.038;7.012;2023-05-28T01:31:41;103016.00;;;11.86;100.00
19845;BME280;10083;51.038;7.012;2023-05-28T01:34:10;103031.19;;;11.86;100.00
19845;BME280;10083;51.038;7.012;2023-05-28T01:36:44;103033.97;;;11.95;100.00
19845;BME280;10083;51.038;7.012;2023-05-28T01:39:14;103063.63;;;12.08;100.00
19845;BME280;10083;51.038;7.012;2023-05-28T01:41:55;103089.59;;;12.12;100.00
19845;BME280;10083;51.038;7.012;2023-05-28T01:44:23;103096.63;;;11.98;100.00
19845;BME280;10083;51.038;7.012;2023-05-28T01:46:57;103108.22;;;11.93;100.00
19845;BME280;10083;51.038;7.012;2023-05-28T01:49:27;103110.06;;;11.98;100.00
19845;BME280;10083;51.038;7.012;2023-05-28T01:52:02;103127.25;;;12.18;100.00
19845;BME280;10083;51.038;7.012;2023-05-28T01:54:31;103141.50;;;12.08;100.00
19845;BME280;10083;51.038;7.012;2023-05-28T01:57:04;103136.06;;;12.05;100.00
19845;BME280;10083;51.038;7.012;2023-05-28T01:59:32;103127.03;;;11.94;100.00
19845;BME280;10083;51.038;7.012;2023-05-28T02:02:04;103138.69;;;11.95;100.00
19845;BME280;10083;51.038;7.012;2023-05-28T02:04:33;103144.13;;;12.02;100.00
19845;BME280;10083;51.038;7.012;2023-05-28T02:07:03;103161.16;;;12.06;100.00
19845;BME280;10083;51.038;7.012;2023-05-28T02:09:31;103168.34;;;12.08;100.00
19845;BME280;10083;51.038;7.012;2023-05-28T02:12:03;103170.09;;;12.03;100.00
19845;BME280;10083;51.038;7.012;2023-05-28T02:14:30;103169.06;;;11.92;100.00
19845;BME280;10083;51.038;7.012;2023-05-28T02:16:59;103194.94;;;11.84;100.00
19845;BME280;10083;51.038;7.012;2023-05-28T02:19:26;103200.13;;;11.69;100.00
19845;BME280;10083;51.038;7.012;2023-05-28T02:21:54;103194.81;;;11.72;100.00
19845;BME280;10083;51.038;7.012;2023-05-28T02:24:21;103198.31;;;11.65;100.00
19845;BME280;10083;51.038;7.012;2023-05-28T02:26:50;103191.94;;;11.58;100.00
19845;BME280;10083;51.038;7.012;2023-05-28T02:29:17;103204.41;;;11.53;100.00
19845;BME280;10083;51.038;7.012;2023-05-28T02:31:44;103191.94;;;11.58;100.00
19845;BME280;10083;51.038;7.012;2023-05-28T02:34:12;103220.56;;;11.58;100.00
19845;BME280;10083;51.038;7.012;2023-05-28T02:36:39;103224.09;;;11.52;100.00
19845;BME280;10083;51.038;7.012;2023-05-28T02:39:09;103254.38;;;11.42;100.00
19845;BME280;10083;51.038;7.012;2023-05-28T02:41:36;103266.81;;;11.37;100.00
19845;BME280;10083;51.038;7.012;2023-05-28T02:44:05;103275.72;;;11.36;100.00
19845;BME280;10083;51.038;7.012;2023-05-28T02:46:32;103281.03;;;11.31;100.00
19845;BME280;10083;51.038;7.012;2023-05-28T02:49:05;103292.56;;;11.24;100.00
19845;BME280;10083;51.038;7.012;2023-05-28T02:51:33;103301.53;;;11.26;100.00
19845;BME280;10083;51.038;7.012;2023-05-28T02:54:17;103306.84;;;11.23;100.00
19845;BME280;10083;51.038;7.012;2023-05-28T02:56:44;103314.81;;;11.19;100.00
19845;BME280;10083;51.038;7.012;2023-05-28T02:59:13;103315.66;;;11.15;100.00
19845;BME280;10083;51.038;7.012;2023-05-28T03:01:41;103317.47;;;11.16;100.00
19845;BME280;10083;51.038;7.012;2023-05-28T03:04:08;103343.34;;;11.14;100.00
19845;BME280;10083;51.038;7.012;2023-05-28T03:06:38;103334.44;;;11.13;100.00
19845;BME280;10083;51.038;7.012;2023-05-28T03:09:07;103343.34;;;11.14;100.00
19845;BME280;10083;51.038;7.012;2023-05-28T03:11:41;103346.78;;;11.05;100.00
19845;BME280;10083;51.038;7.012;2023-05-28T03:14:08;103350.38;;;11.04;100.00
19845;BME280;10083;51.038;7.012;2023-05-28T03:16:36;103358.34;;;11.00;100.00
19845;BME280;10083;51.038;7.012;2023-05-28T03:19:10;103371.72;;;11.00;100.00
19845;BME280;10083;51.038;7.012;2023-05-28T03:21:41;103385.19;;;11.03;100.00
19845;BME280;10083;51.038;7.012;2023-05-28T03:24:09;103394.91;;;10.96;100.00
19845;BME280;10083;51.038;7.012;2023-05-28T03:26:55;103406.44;;;10.92;100.00
19845;BME280;10083;51.038;7.012;2023-05-28T03:29:23;103415.41;;;10.94;100.00
19845;BME280;10083;51.038;7.012;2023-05-28T03:32:15;103418.06;;;10.91;100.00
19845;BME280;10083;51.038;7.012;2023-05-28T03:34:42;103427.84;;;10.89;100.00
19845;BME280;10083;51.038;7.012;2023-05-28T03:37:09;103431.28;;;10.82;100.00
19845;BME280;10083;51.038;7.012;2023-05-28T03:39:38;103437.72;;;10.92;100.00
19845;BME280;10083;51.038;7.012;2023-05-28T03:42:05;103442.00;;;10.82;100.00
19845;BME280;10083;51.038;7.012;2023-05-28T03:44:50;103457.41;;;10.94;100.00
19845;BME280;10083;51.038;7.012;2023-05-28T03:47:19;103473.50;;;10.94;100.00
19845;BME280;10083;51.038;7.012;2023-05-28T03:49:47;103491.22;;;10.85;100.00
19845;BME280;10083;51.038;7.012;2023-05-28T03:52:14;103498.22;;;10.77;100.00
19845;BME280;10083;51.038;7.012;2023-05-28T03:54:50;103532.28;;;10.83;100.00
19845;BME280;10083;51.038;7.012;2023-05-28T03:57:19;103550.25;;;10.88;100.00
19845;BME280;10083;51.038;7.012;2023-05-28T03:59:47;103567.25;;;10.89;100.00
19845;BME280;10083;51.038;7.012;2023-05-28T04:02:15;103591.28;;;10.84;100.00
19845;BME280;10083;51.038;7.012;2023-05-28T04:04:43;103592.31;;;10.91;100.00
19845;BME280;10083;51.038;7.012;2023-05-28T04:07:19;103604.88;;;10.94;100.00
19845;BME280;10083;51.038;7.012;2023-05-28T04:09:46;103632.84;;;11.06;100.00
19845;BME280;10083;51.038;7.012;2023-05-28T04:12:14;103650.81;;;11.10;100.00
19845;BME280;10083;51.038;7.012;2023-05-28T04:14:41;103661.63;;;11.15;100.00
19845;BME280;10083;51.038;7.012;2023-05-28T04:17:09;103667.78;;;11.09;100.00
19845;BME280;10083;51.038;7.012;2023-05-28T04:19:38;103677.72;;;11.15;100.00
19845;BME280;10083;51.038;7.012;2023-05-28T04:22:14;103692.25;;;11.24;100.00
19845;BME280;10083;51.038;7.012;2023-05-28T04:24:41;103712.13;;;11.35;100.00
19845;BME280;10083;51.038;7.012;2023-05-28T04:27:08;103734.50;;;11.34;100.00
19845;BME280;10083;51.038;7.012;2023-05-28T04:29:35;103729.19;;;11.38;100.00
19845;BME280;10083;51.038;7.012;2023-05-28T04:32:04;103743.66;;;11.46;100.00
19845;BME280;10083;51.038;7.012;2023-05-28T04:34:34;103751.88;;;11.52;100.00
19845;BME280;10083;51.038;7.012;2023-05-28T04:37:02;103770.84;;;11.61;100.00
19845;BME280;10083;51.038;7.012;2023-05-28T04:39:32;103788.16;;;11.75;100.00
19845;BME280;10083;51.038;7.012;2023-05-28T04:42:07;103788.28;;;11.81;100.00
19845;BME280;10083;51.038;7.012;2023-05-28T04:44:34;103806.47;;;11.94;100.00
19845;BME280;10083;51.038;7.012;2023-05-28T04:47:04;103806.50;;;11.97;100.00
19845;BME280;10083;51.038;7.012;2023-05-28T04:49:30;103811.06;;;12.01;100.00
19845;BME280;10083;51.038;7.012;2023-05-28T04:52:00;103804.91;;;12.07;100.00
19845;BME280;10083;51.038;7.012;2023-05-28T04:54:27;103818.56;;;12.17;100.00
19845;BME280;10083;51.038;7.012;2023-05-28T04:56:55;103829.41;;;12.23;100.00
19845;BME280;10083;51.038;7.012;2023-05-28T04:59:22;103843.25;;;12.43;100.00
19845;BME280;10083;51.038;7.012;2023-05-28T05:01:51;103862.34;;;12.57;100.00
19845;BME280;10083;51.038;7.012;2023-05-28T05:04:18;103888.47;;;12.65;100.00
19845;BME280;10083;51.038;7.012;2023-05-28T05:06:47;103872.69;;;12.85;100.00
19845;BME280;10083;51.038;7.012;2023-05-28T05:09:14;103901.84;;;13.10;100.00
19845;BME280;10083;51.038;7.012;2023-05-28T05:11:41;103886.75;;;13.20;100.00
19845;BME280;10083;51.038;7.012;2023-05-28T05:14:09;103889.72;;;13.35;100.00
19845;BME280;10083;51.038;7.012;2023-05-28T05:16:37;103886.31;;;13.48;100.00
19845;BME280;10083;51.038;7.012;2023-05-28T05:19:04;103867.75;;;13.68;100.00
19845;BME280;10083;51.038;7.012;2023-05-28T05:21:39;103852.50;;;13.69;100.00
19845;BME280;10083;51.038;7.012;2023-05-28T05:24:06;103840.06;;;13.80;100.00
19845;BME280;10083;51.038;7.012;2023-05-28T05:26:33;103855.47;;;13.90;100.00
19845;BME280;10083;51.038;7.012;2023-05-28T05:29:00;103863.75;;;14.07;100.00
19845;BME280;10083;51.038;7.012;2023-05-28T05:31:38;103867.38;;;14.09;100.00
19845;BME280;10083;51.038;7.012;2023-05-28T05:34:07;103846.81;;;14.17;100.00
19845;BME280;10083;51.038;7.012;2023-05-28T05:36:52;103848.78;;;14.33;100.00
19845;BME280;10083;51.038;7.012;2023-05-28T05:39:42;103843.53;;;14.42;100.00
19845;BME280;10083;51.038;7.012;2023-05-28T05:42:29;103821.16;;;14.54;100.00
19845;BME280;10083;51.038;7.012;2023-05-28T05:44:59;103816.72;;;14.59;100.00
19845;BME280;10083;51.038;7.012;2023-05-28T05:47:27;103811.44;;;14.69;100.00
19845;BME280;10083;51.038;7.012;2023-05-28T05:49:57;103799.81;;;14.81;100.00
19845;BME280;10083;51.038;7.012;2023-05-28T05:52:26;103813.41;;;14.91;100.00
19845;BME280;10083;51.038;7.012;2023-05-28T05:54:54;103810.78;;;14.99;100.00
19845;BME280;10083;51.038;7.012;2023-05-28T05:57:22;103800.06;;;15.13;100.00
19845;BME280;10083;51.038;7.012;2023-05-28T05:59:53;103799.25;;;15.26;100.00
19845;BME280;10083;51.038;7.012;2023-05-28T06:02:20;103805.63;;;15.38;100.00
19845;BME280;10083;51.038;7.012;2023-05-28T06:04:48;103819.25;;;15.55;100.00
19845;BME280;10083;51.038;7.012;2023-05-28T06:07:43;103831.06;;;15.69;100.00
19845;BME280;10083;51.038;7.012;2023-05-28T06:10:29;103831.97;;;15.80;100.00
19845;BME280;10083;51.038;7.012;2023-05-28T06:12:58;103840.13;;;15.90;100.00
19845;BME280;10083;51.038;7.012;2023-05-28T06:15:27;103848.31;;;16.11;100.00
19845;BME280;10083;51.038;7.012;2023-05-28T06:18:03;103856.47;;;16.17;100.00
19845;BME280;10083;51.038;7.012;2023-05-28T06:20:31;103848.38;;;16.26;100.00
19845;BME280;10083;51.038;7.012;2023-05-28T06:23:01;103830.38;;;16.36;100.00
19845;BME280;10083;51.038;7.012;2023-05-28T06:25:29;103807.84;;;16.38;100.00
19845;BME280;10083;51.038;7.012;2023-05-28T06:28:03;103784.41;;;16.55;100.00
19845;BME280;10083;51.038;7.012;2023-05-28T06:30:31;103759.19;;;16.84;100.00
19845;BME280;10083;51.038;7.012;2023-05-28T06:32:58;103737.53;;;16.84;100.00
19845;BME280;10083;51.038;7.012;2023-05-28T06:35:35;103723.94;;;17.00;100.00
19845;BME280;10083;51.038;7.012;2023-05-28T06:38:03;103697.75;;;17.07;100.00
19845;BME280;10083;51.038;7.012;2023-05-28T06:40:34;103678.69;;;17.28;100.00
19845;BME280;10083;51.038;7.012;2023-05-28T06:43:01;103660.59;;;17.39;100.00
19845;BME280;10083;51.038;7.012;2023-05-28T06:45:34;103636.16;;;17.48;100.00
19845;BME280;10083;51.038;7.012;2023-05-28T06:48:02;103599.91;;;17.68;100.00
19845;BME280;10083;51.038;7.012;2023-05-28T06:50:31;103548.31;;;17.80;100.00
19845;BME280;10083;51.038;7.012;2023-05-28T06:53:00;103545.50;;;17.89;100.00
19845;BME280;10083;51.038;7.012;2023-05-28T06:55:29;103497.44;;;18.09;100.00
19845;BME280;10083;51.038;7.012;2023-05-28T06:58:25;103503.75;;;18.10;100.00
19845;BME280;10083;51.038;7.012;2023-05-28T07:01:18;103457.41;;;18.29;100.00
19845;BME280;10083;51.038;7.012;2023-05-28T07:04:05;103451.91;;;18.34;100.00
19845;BME280;10083;51.038;7.012;2023-05-28T07:06:44;103396.47;;;18.55;100.00
19845;BME280;10083;51.038;7.012;2023-05-28T07:09:32;103371.84;;;18.70;100.00
19845;BME280;10083;51.038;7.012;2023-05-28T07:12:02;103409.72;;;18.77;100.00
19845;BME280;10083;51.038;7.012;2023-05-28T07:14:31;103416.63;;;18.98;100.00
19845;BME280;10083;51.038;7.012;2023-05-28T07:16:58;103339.75;;;18.93;100.00
19845;BME280;10083;51.038;7.012;2023-05-28T07:19:25;103264.94;;;19.26;100.00
19845;BME280;10083;51.038;7.012;2023-05-28T07:21:54;103246.41;;;19.48;100.00
19845;BME280;10083;51.038;7.012;2023-05-28T07:24:21;103256.81;;;19.70;100.00
19845;BME280;10083;51.038;7.012;2023-05-28T07:26:56;103275.41;;;19.90;100.00
19845;BME280;10083;51.038;7.012;2023-05-28T07:29:26;103220.91;;;19.95;100.00
19845;BME280;10083;51.038;7.012;2023-05-28T07:32:01;103226.44;;;19.90;100.00
19845;BME280;10083;51.038;7.012;2023-05-28T07:34:32;103165.16;;;20.12;100.00
19845;BME280;10083;51.038;7.012;2023-05-28T07:37:00;103134.22;;;20.16;100.00
19845;BME280;10083;51.038;7.012;2023-05-28T07:39:33;103092.84;;;20.38;100.00
19845;BME280;10083;51.038;7.012;2023-05-28T07:42:02;103100.50;;;20.57;100.00
19845;BME280;10083;51.038;7.012;2023-05-28T07:44:37;103057.38;;;20.41;100.00
19845;BME280;10083;51.038;7.012;2023-05-28T07:47:04;103050.13;;;20.72;100.00
19845;BME280;10083;51.038;7.012;2023-05-28T07:49:50;103049.06;;;20.77;100.00
19845;BME280;10083;51.038;7.012;2023-05-28T07:52:20;103052.44;;;20.87;100.00
19845;BME280;10083;51.038;7.012;2023-05-28T07:54:49;103112.66;;;21.07;100.00
19845;BME280;10083;51.038;7.012;2023-05-28T07:57:17;103068.31;;;21.02;100.00
19845;BME280;10083;51.038;7.012;2023-05-28T07:59:49;103021.44;;;21.20;100.00
19845;BME280;10083;51.038;7.012;2023-05-28T08:02:17;102984.50;;;21.40;100.00
19845;BME280;10083;51.038;7.012;2023-05-28T08:04:44;103048.31;;;21.62;100.00
19845;BME280;10083;51.038;7.012;2023-05-28T08:07:11;103077.44;;;21.60;100.00
19845;BME280;10083;51.038;7.012;2023-05-28T08:09:52;103029.84;;;21.70;100.00
19845;BME280;10083;51.038;7.012;2023-05-28T08:12:22;103026.03;;;22.02;100.00
19845;BME280;10083;51.038;7.012;2023-05-28T08:14:52;103044.06;;;22.06;100.00
19845;BME280;10083;51.038;7.012;2023-05-28T08:17:22;103043.06;;;22.10;100.00
19845;BME280;10083;51.038;7.012;2023-05-28T08:19:53;102996.56;;;22.36;100.00
19845;BME280;10083;51.038;7.012;2023-05-28T08:22:34;103013.13;;;22.57;100.00
19845;BME280;10083;51.038;7.012;2023-05-28T08:25:04;103026.63;;;22.61;100.00
19845;BME280;10083;51.038;7.012;2023-05-28T08:27:33;103012.72;;;22.67;100.00
19845;BME280;10083;51.038;7.012;2023-05-28T08:30:04;102941.25;;;22.79;100.00
19845;BME280;10083;51.038;7.012;2023-05-28T08:32:38;102901.72;;;22.65;100.00
19845;BME280;10083;51.038;7.012;2023-05-28T08:35:10;102923.88;;;22.80;100.00
19845;BME280;10083;51.038;7.012;2023-05-28T08:37:38;102943.31;;;22.96;100.00
19845;BME280;10083;51.038;7.012;2023-05-28T08:40:15;102896.94;;;23.15;100.00
19845;BME280;10083;51.038;7.012;2023-05-28T08:42:46;102829.25;;;23.21;100.00
19845;BME280;10083;51.038;7.012;2023-05-28T08:45:15;102796.88;;;23.53;100.00
19845;BME280;10083;51.038;7.012;2023-05-28T08:48:04;102721.50;;;23.66;100.00
19845;BME280;10083;51.038;7.012;2023-05-28T08:50:36;102727.56;;;23.72;100.00
19845;BME280;10083;51.038;7.012;2023-05-28T08:53:20;102717.66;;;23.70;100.00
19845;BME280;10083;51.038;7.012;2023-05-28T08:55:53;102659.38;;;24.05;100.00
19845;BME280;10083;51.038;7.012;2023-05-28T08:58:24;102708.63;;;23.86;100.00
19845;BME280;10083;51.038;7.012;2023-05-28T09:00:59;102629.72;;;23.96;100.00
19845;BME280;10083;51.038;7.012;2023-05-28T09:03:32;102636.69;;;24.39;100.00
19845;BME280;10083;51.038;7.012;2023-05-28T09:06:19;102605.00;;;24.15;100.00
19845;BME280;10083;51.038;7.012;2023-05-28T09:08:50;102558.44;;;24.51;100.00
19845;BME280;10083;51.038;7.012;2023-05-28T09:11:38;102392.13;;;24.53;100.00
19845;BME280;10083;51.038;7.012;2023-05-28T09:14:17;102424.38;;;25.12;100.00
19845;BME280;10083;51.038;7.012;2023-05-28T09:16:44;102332.56;;;25.19;100.00
19845;BME280;10083;51.038;7.012;2023-05-28T09:19:28;102408.81;;;25.28;100.00
19845;BME280;10083;51.038;7.012;2023-05-28T09:21:59;102269.91;;;25.27;100.00
19845;BME280;10083;51.038;7.012;2023-05-28T09:24:36;102333.72;;;25.60;100.00
19845;BME280;10083;51.038;7.012;2023-05-28T09:27:24;102272.97;;;25.67;100.00
19845;BME280;10083;51.038;7.012;2023-05-28T09:30:02;102195.78;;;25.13;100.00
19845;BME280;10083;51.038;7.012;2023-05-28T09:32:29;102188.75;;;25.95;100.00
19845;BME280;10083;51.038;7.012;2023-05-28T09:34:59;102116.38;;;25.96;100.00
19845;BME280;10083;51.038;7.012;2023-05-28T09:37:27;102252.84;;;25.80;100.00
19845;BME280;10083;51.038;7.012;2023-05-28T09:40:04;102235.69;;;26.33;100.00
19845;BME280;10083;51.038;7.012;2023-05-28T09:42:36;102234.50;;;26.51;100.00
19845;BME280;10083;51.038;7.012;2023-05-28T09:45:10;102223.09;;;26.58;100.00
19845;BME280;10083;51.038;7.012;2023-05-28T09:47:44;102156.00;;;27.26;100.00
19845;BME280;10083;51.038;7.012;2023-05-28T09:50:35;102115.69;;;27.25;100.00
19845;BME280;10083;51.038;7.012;2023-05-28T09:53:03;102040.38;;;27.39;100.00
19845;BME280;10083;51.038;7.012;2023-05-28T09:55:37;102043.94;;;27.16;100.00
19845;BME280;10083;51.038;7.012;2023-05-28T09:58:05;102089.38;;;26.96;100.00
19845;BME280;10083;51.038;7.012;2023-05-28T10:00:35;102083.75;;;27.73;100.00
19845;BME280;10083;51.038;7.012;2023-05-28T10:03:12;102066.94;;;27.27;100.00
19845;BME280;10083;51.038;7.012;2023-05-28T10:05:43;102055.31;;;27.73;100.00
19845;BME280;10083;51.038;7.012;2023-05-28T10:08:15;102018.78;;;27.95;100.00
19845;BME280;10083;51.038;7.012;2023-05-28T10:10:44;102087.09;;;27.40;100.00
19845;BME280;10083;51.038;7.012;2023-05-28T10:13:25;101997.50;;;27.73;100.00
19845;BME280;10083;51.038;7.012;2023-05-28T10:15:55;101988.91;;;28.01;100.00
19845;BME280;10083;51.038;7.012;2023-05-28T10:18:29;102075.34;;;28.59;100.00
19845;BME280;10083;51.038;7.012;2023-05-28T10:20:58;102033.44;;;28.43;100.00
19845;BME280;10083;51.038;7.012;2023-05-28T10:23:26;101971.66;;;29.02;100.00
19845;BME280;10083;51.038;7.012;2023-05-28T10:25:54;101976.13;;;29.59;100.00
19845;BME280;10083;51.038;7.012;2023-05-28T10:28:31;101874.44;;;29.64;100.00
19845;BME280;10083;51.038;7.012;2023-05-28T10:31:04;101820.69;;;28.93;100.00
19845;BME280;10083;51.038;7.012;2023-05-28T10:33:37;101983.22;;;31.00;100.00
19845;BME280;10083;51.038;7.012;2023-05-28T10:36:09;101845.56;;;30.81;100.00
19845;BME280;10083;51.038;7.012;2023-05-28T10:38:44;101805.53;;;30.25;100.00
19845;BME280;10083;51.038;7.012;2023-05-28T10:41:23;101671.56;;;31.26;100.00
19845;BME280;10083;51.038;7.012;2023-05-28T10:43:51;101725.72;;;30.41;100.00
19845;BME280;10083;51.038;7.012;2023-05-28T10:46:36;101750.22;;;31.91;100.00
19845;BME280;10083;51.038;7.012;2023-05-28T10:49:09;101748.19;;;29.55;100.00
19845;BME280;10083;51.038;7.012;2023-05-28T10:51:44;101747.19;;;31.46;100.00
19845;BME280;10083;51.038;7.012;2023-05-28T10:54:21;101627.53;;;31.33;100.00
19845;BME280;10083;51.038;7.012;2023-05-28T10:57:12;101732.34;;;31.18;100.00
19845;BME280;10083;51.038;7.012;2023-05-28T10:59:52;101670.56;;;31.37;100.00
19845;BME280;10083;51.038;7.012;2023-05-28T11:02:23;101608.69;;;32.47;100.00
19845;BME280;10083;51.038;7.012;2023-05-28T11:04:56;101639.91;;;32.77;100.00
19845;BME280;10083;51.038;7.012;2023-05-28T11:07:29;101645.00;;;32.09;100.00
19845;BME280;10083;51.038;7.012;2023-05-28T11:10:08;101648.59;;;31.72;100.00
19845;BME280;10083;51.038;7.012;2023-05-28T11:12:36;101523.00;;;32.97;100.00
19845;BME280;10083;51.038;7.012;2023-05-28T11:15:06;101621.53;;;32.48;100.00
19845;BME280;10083;51.038;7.012;2023-05-28T11:17:37;101659.41;;;33.38;100.00
19845;BME280;10083;51.038;7.012;2023-05-28T11:20:13;101509.03;;;33.33;100.00
19845;BME280;10083;51.038;7.012;2023-05-28T11:22:41;101581.97;;;32.01;100.00
19845;BME280;10083;51.038;7.012;2023-05-28T11:25:20;101470.97;;;33.33;100.00
19845;BME280;10083;51.038;7.012;2023-05-28T11:27:48;101372.22;;;33.05;100.00
19845;BME280;10083;51.038;7.012;2023-05-28T11:30:19;101548.56;;;31.75;100.00
19845;BME280;10083;51.038;7.012;2023-05-28T11:32:48;101521.66;;;32.30;100.00
19845;BME280;10083;51.038;7.012;2023-05-28T11:35:41;101534.47;;;34.38;100.00
19845;BME280;10083;51.038;7.012;2023-05-28T11:38:08;101533.94;;;34.18;100.00
19845;BME280;10083;51.038;7.012;2023-05-28T11:40:35;101471.78;;;33.59;100.00
19845;BME280;10083;51.038;7.012;2023-05-28T11:43:02;101439.19;;;33.28;100.00
19845;BME280;10083;51.038;7.012;2023-05-28T11:45:36;101363.53;;;34.32;100.00
19845;BME280;10083;51.038;7.012;2023-05-28T11:48:10;101465.84;;;32.51;100.00
19845;BME280;10083;51.038;7.012;2023-05-28T11:50:37;101540.66;;;33.40;100.00
19845;BME280;10083;51.038;7.012;2023-05-28T11:53:09;101548.09;;;34.07;100.00
19845;BME280;10083;51.038;7.012;2023-05-28T11:55:37;101515.81;;;34.14;100.00
19845;BME280;10083;51.038;7.012;2023-05-28T11:58:07;101466.16;;;34.76;100.00
19845;BME280;10083;51.038;7.012;2023-05-28T12:00:34;101635.53;;;34.46;100.00
19845;BME280;10083;51.038;7.012;2023-05-28T12:03:12;101445.09;;;34.89;100.00
19845;BME280;10083;51.038;7.012;2023-05-28T12:05:39;101571.22;;;33.66;100.00
19845;BME280;10083;51.038;7.012;2023-05-28T12:08:06;101447.63;;;35.07;100.00
19845;BME280;10083;51.038;7.012;2023-05-28T12:10:33;101579.22;;;34.53;100.00
19845;BME280;10083;51.038;7.012;2023-05-28T12:13:02;101481.28;;;34.49;100.00
19845;BME280;10083;51.038;7.012;2023-05-28T12:15:31;101631.13;;;34.20;100.00
19845;BME280;10083;51.038;7.012;2023-05-28T12:18:05;101520.41;;;35.04;100.00
19845;BME280;10083;51.038;7.012;2023-05-28T12:20:36;101537.59;;;34.27;100.00
19845;BME280;10083;51.038;7.012;2023-05-28T12:23:07;101405.94;;;35.38;100.00
19845;BME280;10083;51.038;7.012;2023-05-28T12:25:48;101433.97;;;36.06;100.00
19845;BME280;10083;51.038;7.012;2023-05-28T12:28:17;101532.28;;;34.82;100.00
19845;BME280;10083;51.038;7.012;2023-05-28T12:30:46;101602.94;;;35.13;100.00
19845;BME280;10083;51.038;7.012;2023-05-28T12:33:17;101484.50;;;35.33;100.00
19845;BME280;10083;51.038;7.012;2023-05-28T12:35:45;101520.94;;;36.18;100.00
19845;BME280;10083;51.038;7.012;2023-05-28T12:38:19;101467.69;;;35.03;100.00
19845;BME280;10083;51.038;7.012;2023-05-28T12:40:46;101518.97;;;34.19;100.00
19845;BME280;10083;51.038;7.012;2023-05-28T12:43:14;101598.59;;;34.78;100.00
19845;BME280;10083;51.038;7.012;2023-05-28T12:45:42;101509.09;;;34.57;100.00
19845;BME280;10083;51.038;7.012;2023-05-28T12:48:09;101460.59;;;34.68;100.00
19845;BME280;10083;51.038;7.012;2023-05-28T12:50:36;101424.22;;;34.53;100.00
19845;BME280;10083;51.038;7.012;2023-05-28T12:53:04;101417.00;;;34.99;100.00
19845;BME280;10083;51.038;7.012;2023-05-28T12:55:31;101558.06;;;34.68;100.00
19845;BME280;10083;51.038;7.012;2023-05-28T12:57:58;101503.69;;;34.39;100.00
19845;BME280;10083;51.038;7.012;2023-05-28T13:00:25;101410.00;;;33.66;100.00
19845;BME280;10083;51.038;7.012;2023-05-28T13:02:56;101456.75;;;34.77;100.00